KINDAKUN POINT, BC current weather conditions

sailwx.info

Wind from 350 at 24 knots

Air temperature 15.0° C

Last reported at 2014-Sep-03 01:00 UTC.
Time now 2014-Sep-03 02:38 UTC

Location: N 53°19' W 132°46'.
View on Google Maps.

See reports from other nearby stations

  
Tides and Currents Weather Stations Pressure Air Temp Water Temp Dewpoint Dewpoint Depression Visibility Wind Speed Wind Dir Waves Ship Positions
date/time (UTC)wind fromknots sea level pressurealtimeterstation pressurevisibilityair tempwater tempwave heightnotes
2014-Sep-03 01:00 350 24 15.0
2014-Sep-03 00:00 350 24 15.0
2014-Sep-02 23:00 350 26 15.0
2014-Sep-02 22:00 340 22 15.0
2014-Sep-02 21:00 340 22 15.0
2014-Sep-02 20:00 350 24 15.0
2014-Sep-02 19:00 350 24 15.0
2014-Sep-02 18:00 350 20 15.0
2014-Sep-02 17:00 360 13 gusting 23 15.0
2014-Sep-02 16:00 360 14 gusting 22 14.0
2014-Sep-02 15:00 030 5 13.0
2014-Sep-02 14:00 030 8 gusting 15 14.0
2014-Sep-02 13:00 360 17 gusting 23 14.0
2014-Sep-02 12:00 360 18 15.0
2014-Sep-02 11:00 350 20 15.0
2014-Sep-02 10:00 350 18 15.0
2014-Sep-02 09:00 350 17 15.0
2014-Sep-02 08:00 340 17 15.0
2014-Sep-02 07:00 340 16 15.0
2014-Sep-02 06:00 320 13 15.0
2014-Sep-02 05:00 320 11 15.0
2014-Sep-02 04:00 320 13 15.0
2014-Sep-02 03:00 310 14 15.0
2014-Sep-02 02:00 290 5 15.0
2014-Sep-02 01:00 300 13 16.0
2014-Sep-02 00:00 300 14 16.0
2014-Sep-01 23:00 290 17 16.0
2014-Sep-01 22:00 300 16 16.0
2014-Sep-01 21:00 310 17 gusting 25 15.0
2014-Sep-01 20:00 330 15 15.0
2014-Sep-01 19:00 310 19 15.0
2014-Sep-01 18:00 310 18 15.0
2014-Sep-01 17:00 290 20 gusting 27 14.0
2014-Sep-01 16:00 280 15 15.0
2014-Sep-01 15:00 280 17 15.0
2014-Sep-01 14:00 310 16 14.0
2014-Sep-01 13:00 290 18 15.0
2014-Sep-01 12:00 280 17 15.0
2014-Sep-01 11:00 290 17 15.0
2014-Sep-01 10:00 290 16 15.0
2014-Sep-01 09:00 280 14 15.0
2014-Sep-01 08:00 280 18 gusting 24 15.0
2014-Sep-01 07:00 270 15 15.0
2014-Sep-01 06:00 290 14 15.0
2014-Sep-01 05:00 280 14 16.0
2014-Sep-01 04:00 280 11 16.0
2014-Sep-01 03:00 300 15 16.0
2014-Sep-01 02:00 290 13 16.0